sensor_id;sensor_type;location;lat;lon;timestamp;P1;durP1;ratioP1;P2;durP2;ratioP2
4603;SDS011;2314;48.272;11.562;2022-09-16T00:02:05;132.20;;;12.07;;
4603;SDS011;2314;48.272;11.562;2022-09-16T00:04:33;132.10;;;12.40;;
4603;SDS011;2314;48.272;11.562;2022-09-16T00:07:00;135.63;;;12.63;;
4603;SDS011;2314;48.272;11.562;2022-09-16T00:09:28;135.30;;;13.40;;
4603;SDS011;2314;48.272;11.562;2022-09-16T00:11:55;134.57;;;13.60;;
4603;SDS011;2314;48.272;11.562;2022-09-16T00:14:22;139.70;;;14.17;;
4603;SDS011;2314;48.272;11.562;2022-09-16T00:16:49;131.97;;;13.17;;
4603;SDS011;2314;48.272;11.562;2022-09-16T00:19:16;132.67;;;12.17;;
4603;SDS011;2314;48.272;11.562;2022-09-16T00:21:45;129.00;;;10.83;;
4603;SDS011;2314;48.272;11.562;2022-09-16T00:24:13;135.17;;;12.07;;
4603;SDS011;2314;48.272;11.562;2022-09-16T00:26:40;131.10;;;10.80;;
4603;SDS011;2314;48.272;11.562;2022-09-16T00:29:08;130.37;;;11.17;;
4603;SDS011;2314;48.272;11.562;2022-09-16T00:31:35;136.20;;;11.23;;
4603;SDS011;2314;48.272;11.562;2022-09-16T00:34:02;129.30;;;10.77;;
4603;SDS011;2314;48.272;11.562;2022-09-16T00:36:29;131.97;;;11.47;;
4603;SDS011;2314;48.272;11.562;2022-09-16T00:38:58;130.97;;;11.43;;
4603;SDS011;2314;48.272;11.562;2022-09-16T00:41:26;132.07;;;11.00;;
4603;SDS011;2314;48.272;11.562;2022-09-16T00:43:57;130.27;;;10.57;;
4603;SDS011;2314;48.272;11.562;2022-09-16T00:46:29;128.03;;;10.17;;
4603;SDS011;2314;48.272;11.562;2022-09-16T00:49:03;129.57;;;10.50;;
4603;SDS011;2314;48.272;11.562;2022-09-16T00:51:36;133.90;;;9.83;;
4603;SDS011;2314;48.272;11.562;2022-09-16T00:54:06;134.67;;;11.50;;
4603;SDS011;2314;48.272;11.562;2022-09-16T00:56:35;132.17;;;10.37;;
4603;SDS011;2314;48.272;11.562;2022-09-16T00:59:05;131.47;;;10.00;;
4603;SDS011;2314;48.272;11.562;2022-09-16T01:01:36;128.80;;;10.40;;
4603;SDS011;2314;48.272;11.562;2022-09-16T01:04:07;130.47;;;10.47;;
4603;SDS011;2314;48.272;11.562;2022-09-16T01:06:42;130.40;;;11.30;;
4603;SDS011;2314;48.272;11.562;2022-09-16T01:09:11;132.47;;;11.60;;
4603;SDS011;2314;48.272;11.562;2022-09-16T01:11:38;129.53;;;10.47;;
4603;SDS011;2314;48.272;11.562;2022-09-16T01:14:05;131.37;;;11.60;;
4603;SDS011;2314;48.272;11.562;2022-09-16T01:16:52;133.17;;;11.57;;
4603;SDS011;2314;48.272;11.562;2022-09-16T01:19:31;129.33;;;11.70;;
4603;SDS011;2314;48.272;11.562;2022-09-16T01:22:13;129.80;;;11.27;;
4603;SDS011;2314;48.272;11.562;2022-09-16T01:25:03;129.80;;;11.20;;
4603;SDS011;2314;48.272;11.562;2022-09-16T01:30:38;129.77;;;10.23;;
4603;SDS011;2314;48.272;11.562;2022-09-16T01:33:15;129.70;;;10.10;;
4603;SDS011;2314;48.272;11.562;2022-09-16T01:36:03;128.27;;;9.97;;
4603;SDS011;2314;48.272;11.562;2022-09-16T01:38:57;150.43;;;12.50;;
4603;SDS011;2314;48.272;11.562;2022-09-16T01:41:39;131.67;;;10.67;;
4603;SDS011;2314;48.272;11.562;2022-09-16T01:44:18;129.50;;;11.00;;
4603;SDS011;2314;48.272;11.562;2022-09-16T01:46:53;126.30;;;8.67;;
4603;SDS011;2314;48.272;11.562;2022-09-16T01:49:34;127.67;;;9.70;;
4603;SDS011;2314;48.272;11.562;2022-09-16T01:52:12;130.60;;;11.27;;
4603;SDS011;2314;48.272;11.562;2022-09-16T01:54:48;128.87;;;10.37;;
4603;SDS011;2314;48.272;11.562;2022-09-16T01:57:20;135.07;;;10.83;;
4603;SDS011;2314;48.272;11.562;2022-09-16T01:59:55;129.00;;;11.13;;
4603;SDS011;2314;48.272;11.562;2022-09-16T02:02:28;131.00;;;10.43;;
4603;SDS011;2314;48.272;11.562;2022-09-16T02:05:03;128.80;;;10.73;;
4603;SDS011;2314;48.272;11.562;2022-09-16T02:07:36;129.10;;;10.73;;
4603;SDS011;2314;48.272;11.562;2022-09-16T02:10:10;131.23;;;10.17;;
4603;SDS011;2314;48.272;11.562;2022-09-16T02:12:43;132.30;;;11.00;;
4603;SDS011;2314;48.272;11.562;2022-09-16T02:15:13;129.90;;;10.00;;
4603;SDS011;2314;48.272;11.562;2022-09-16T02:17:48;127.13;;;10.67;;
4603;SDS011;2314;48.272;11.562;2022-09-16T02:20:22;127.47;;;10.00;;
4603;SDS011;2314;48.272;11.562;2022-09-16T02:22:53;131.47;;;10.70;;
4603;SDS011;2314;48.272;11.562;2022-09-16T02:25:25;127.50;;;9.30;;
4603;SDS011;2314;48.272;11.562;2022-09-16T02:27:53;133.97;;;10.90;;
4603;SDS011;2314;48.272;11.562;2022-09-16T02:30:22;128.47;;;10.40;;
4603;SDS011;2314;48.272;11.562;2022-09-16T02:32:52;129.80;;;10.70;;
4603;SDS011;2314;48.272;11.562;2022-09-16T02:35:24;128.30;;;10.17;;
4603;SDS011;2314;48.272;11.562;2022-09-16T02:37:54;127.10;;;9.70;;
4603;SDS011;2314;48.272;11.562;2022-09-16T02:40:25;127.70;;;10.67;;
4603;SDS011;2314;48.272;11.562;2022-09-16T02:42:59;128.33;;;9.70;;
4603;SDS011;2314;48.272;11.562;2022-09-16T02:45:29;129.90;;;10.10;;
4603;SDS011;2314;48.272;11.562;2022-09-16T02:48:10;128.97;;;10.23;;
4603;SDS011;2314;48.272;11.562;2022-09-16T02:50:46;128.30;;;8.80;;
4603;SDS011;2314;48.272;11.562;2022-09-16T02:53:22;132.67;;;10.23;;
4603;SDS011;2314;48.272;11.562;2022-09-16T02:56:00;131.30;;;10.27;;
4603;SDS011;2314;48.272;11.562;2022-09-16T02:58:31;126.37;;;9.70;;
4603;SDS011;2314;48.272;11.562;2022-09-16T03:00:58;125.50;;;9.23;;
4603;SDS011;2314;48.272;11.562;2022-09-16T03:03:27;128.27;;;8.13;;
4603;SDS011;2314;48.272;11.562;2022-09-16T03:06:10;124.57;;;8.87;;
4603;SDS011;2314;48.272;11.562;2022-09-16T03:08:42;127.23;;;9.23;;
4603;SDS011;2314;48.272;11.562;2022-09-16T03:11:16;126.83;;;9.60;;
4603;SDS011;2314;48.272;11.562;2022-09-16T03:14:05;128.47;;;9.43;;
4603;SDS011;2314;48.272;11.562;2022-09-16T03:17:07;125.57;;;8.90;;
4603;SDS011;2314;48.272;11.562;2022-09-16T03:19:54;124.57;;;9.23;;
4603;SDS011;2314;48.272;11.562;2022-09-16T03:22:35;130.27;;;10.07;;
4603;SDS011;2314;48.272;11.562;2022-09-16T03:25:15;126.77;;;9.37;;
4603;SDS011;2314;48.272;11.562;2022-09-16T03:27:59;127.53;;;9.27;;
4603;SDS011;2314;48.272;11.562;2022-09-16T03:30:33;127.47;;;9.37;;
4603;SDS011;2314;48.272;11.562;2022-09-16T03:33:07;130.60;;;10.57;;
4603;SDS011;2314;48.272;11.562;2022-09-16T03:35:45;136.30;;;9.90;;
4603;SDS011;2314;48.272;11.562;2022-09-16T03:38:15;125.57;;;9.50;;
4603;SDS011;2314;48.272;11.562;2022-09-16T03:40:43;128.93;;;8.63;;
4603;SDS011;2314;48.272;11.562;2022-09-16T03:43:13;132.93;;;9.80;;
4603;SDS011;2314;48.272;11.562;2022-09-16T03:45:42;128.77;;;10.37;;
4603;SDS011;2314;48.272;11.562;2022-09-16T03:48:09;132.00;;;10.90;;
4603;SDS011;2314;48.272;11.562;2022-09-16T03:50:38;131.17;;;11.40;;
4603;SDS011;2314;48.272;11.562;2022-09-16T03:53:07;134.10;;;12.87;;
4603;SDS011;2314;48.272;11.562;2022-09-16T03:55:34;130.87;;;10.20;;
4603;SDS011;2314;48.272;11.562;2022-09-16T03:58:01;134.87;;;11.63;;
4603;SDS011;2314;48.272;11.562;2022-09-16T04:00:28;128.70;;;11.00;;
4603;SDS011;2314;48.272;11.562;2022-09-16T04:02:55;129.87;;;10.30;;
4603;SDS011;2314;48.272;11.562;2022-09-16T04:05:25;137.13;;;12.87;;
4603;SDS011;2314;48.272;11.562;2022-09-16T04:07:52;130.53;;;11.80;;
4603;SDS011;2314;48.272;11.562;2022-09-16T04:10:20;130.80;;;12.00;;
4603;SDS011;2314;48.272;11.562;2022-09-16T04:12:47;132.97;;;12.00;;
4603;SDS011;2314;48.272;11.562;2022-09-16T04:15:15;129.67;;;12.10;;
4603;SDS011;2314;48.272;11.562;2022-09-16T04:17:42;135.80;;;12.80;;
4603;SDS011;2314;48.272;11.562;2022-09-16T04:20:09;134.57;;;12.30;;
4603;SDS011;2314;48.272;11.562;2022-09-16T04:22:36;130.33;;;12.43;;
4603;SDS011;2314;48.272;11.562;2022-09-16T04:25:03;133.80;;;12.30;;
4603;SDS011;2314;48.272;11.562;2022-09-16T04:27:32;135.57;;;13.50;;
4603;SDS011;2314;48.272;11.562;2022-09-16T04:29:59;133.37;;;13.20;;
4603;SDS011;2314;48.272;11.562;2022-09-16T04:32:26;133.30;;;13.23;;
4603;SDS011;2314;48.272;11.562;2022-09-16T04:34:53;150.67;;;13.00;;
4603;SDS011;2314;48.272;11.562;2022-09-16T04:37:20;134.53;;;13.20;;
4603;SDS011;2314;48.272;11.562;2022-09-16T04:39:47;135.00;;;13.07;;
4603;SDS011;2314;48.272;11.562;2022-09-16T04:42:14;143.40;;;12.73;;
4603;SDS011;2314;48.272;11.562;2022-09-16T04:44:43;141.30;;;13.27;;
4603;SDS011;2314;48.272;11.562;2022-09-16T04:47:10;139.17;;;13.43;;
4603;SDS011;2314;48.272;11.562;2022-09-16T04:49:37;134.47;;;13.90;;
4603;SDS011;2314;48.272;11.562;2022-09-16T04:52:04;131.70;;;12.47;;
4603;SDS011;2314;48.272;11.562;2022-09-16T04:54:31;135.20;;;14.43;;
4603;SDS011;2314;48.272;11.562;2022-09-16T04:56:58;134.47;;;13.33;;
4603;SDS011;2314;48.272;11.562;2022-09-16T04:59:25;131.63;;;12.60;;
4603;SDS011;2314;48.272;11.562;2022-09-16T05:01:53;134.33;;;12.43;;
4603;SDS011;2314;48.272;11.562;2022-09-16T05:04:21;134.60;;;13.30;;
4603;SDS011;2314;48.272;11.562;2022-09-16T05:06:48;131.80;;;13.00;;
4603;SDS011;2314;48.272;11.562;2022-09-16T05:09:15;133.00;;;12.20;;
4603;SDS011;2314;48.272;11.562;2022-09-16T05:11:42;134.47;;;13.30;;
4603;SDS011;2314;48.272;11.562;2022-09-16T05:14:20;133.07;;;13.27;;
4603;SDS011;2314;48.272;11.562;2022-09-16T05:16:58;152.03;;;13.40;;
4603;SDS011;2314;48.272;11.562;2022-09-16T05:19:25;134.77;;;12.57;;
4603;SDS011;2314;48.272;11.562;2022-09-16T05:21:52;132.77;;;13.80;;
4603;SDS011;2314;48.272;11.562;2022-09-16T05:24:20;139.97;;;13.20;;
4603;SDS011;2314;48.272;11.562;2022-09-16T05:26:47;133.60;;;12.80;;
4603;SDS011;2314;48.272;11.562;2022-09-16T05:29:15;130.83;;;12.13;;
4603;SDS011;2314;48.272;11.562;2022-09-16T05:31:43;131.63;;;11.70;;
4603;SDS011;2314;48.272;11.562;2022-09-16T05:34:14;132.97;;;12.20;;
4603;SDS011;2314;48.272;11.562;2022-09-16T05:36:43;129.67;;;12.30;;
4603;SDS011;2314;48.272;11.562;2022-09-16T05:39:13;130.70;;;11.47;;
4603;SDS011;2314;48.272;11.562;2022-09-16T05:41:42;133.70;;;12.33;;
4603;SDS011;2314;48.272;11.562;2022-09-16T05:44:09;131.83;;;12.37;;
4603;SDS011;2314;48.272;11.562;2022-09-16T05:46:36;133.00;;;11.87;;
4603;SDS011;2314;48.272;11.562;2022-09-16T05:49:04;135.43;;;13.60;;
4603;SDS011;2314;48.272;11.562;2022-09-16T05:51:35;134.90;;;11.83;;
4603;SDS011;2314;48.272;11.562;2022-09-16T05:54:03;133.30;;;11.70;;
4603;SDS011;2314;48.272;11.562;2022-09-16T05:56:30;139.10;;;11.93;;
4603;SDS011;2314;48.272;11.562;2022-09-16T05:58:58;128.50;;;10.70;;
4603;SDS011;2314;48.272;11.562;2022-09-16T06:01:27;132.10;;;10.60;;
4603;SDS011;2314;48.272;11.562;2022-09-16T06:03:56;134.17;;;12.00;;
4603;SDS011;2314;48.272;11.562;2022-09-16T06:06:27;139.43;;;11.37;;
4603;SDS011;2314;48.272;11.562;2022-09-16T06:08:58;130.17;;;11.27;;
4603;SDS011;2314;48.272;11.562;2022-09-16T06:11:29;134.83;;;12.50;;
4603;SDS011;2314;48.272;11.562;2022-09-16T06:13:56;130.97;;;11.50;;
4603;SDS011;2314;48.272;11.562;2022-09-16T06:16:26;136.07;;;11.30;;
4603;SDS011;2314;48.272;11.562;2022-09-16T06:18:57;129.63;;;11.87;;
4603;SDS011;2314;48.272;11.562;2022-09-16T06:21:25;128.37;;;11.10;;
4603;SDS011;2314;48.272;11.562;2022-09-16T06:23:53;133.37;;;12.27;;
4603;SDS011;2314;48.272;11.562;2022-09-16T06:26:23;130.40;;;12.10;;
4603;SDS011;2314;48.272;11.562;2022-09-16T06:28:53;132.17;;;11.60;;
4603;SDS011;2314;48.272;11.562;2022-09-16T06:31:21;130.97;;;12.53;;
4603;SDS011;2314;48.272;11.562;2022-09-16T06:33:51;133.10;;;12.37;;
4603;SDS011;2314;48.272;11.562;2022-09-16T06:36:19;133.57;;;12.90;;
4603;SDS011;2314;48.272;11.562;2022-09-16T06:38:49;134.80;;;12.30;;
4603;SDS011;2314;48.272;11.562;2022-09-16T06:41:17;133.27;;;11.27;;
4603;SDS011;2314;48.272;11.562;2022-09-16T06:43:47;133.50;;;13.20;;
4603;SDS011;2314;48.272;11.562;2022-09-16T06:46:16;136.30;;;13.30;;
4603;SDS011;2314;48.272;11.562;2022-09-16T06:48:46;136.23;;;12.97;;
4603;SDS011;2314;48.272;11.562;2022-09-16T06:51:16;129.17;;;12.23;;
4603;SDS011;2314;48.272;11.562;2022-09-16T06:53:46;137.83;;;12.93;;
4603;SDS011;2314;48.272;11.562;2022-09-16T06:56:16;131.17;;;12.10;;
4603;SDS011;2314;48.272;11.562;2022-09-16T06:58:48;135.63;;;12.80;;
4603;SDS011;2314;48.272;11.562;2022-09-16T07:01:17;132.97;;;12.90;;
4603;SDS011;2314;48.272;11.562;2022-09-16T07:03:48;131.33;;;12.97;;
4603;SDS011;2314;48.272;11.562;2022-09-16T07:06:17;128.17;;;10.50;;
4603;SDS011;2314;48.272;11.562;2022-09-16T07:08:46;131.00;;;11.63;;
4603;SDS011;2314;48.272;11.562;2022-09-16T07:11:14;140.10;;;13.07;;
4603;SDS011;2314;48.272;11.562;2022-09-16T07:13:44;135.90;;;11.67;;
4603;SDS011;2314;48.272;11.562;2022-09-16T07:16:17;128.67;;;11.00;;
4603;SDS011;2314;48.272;11.562;2022-09-16T07:18:50;130.90;;;11.47;;
4603;SDS011;2314;48.272;11.562;2022-09-16T07:21:21;127.80;;;11.67;;
4603;SDS011;2314;48.272;11.562;2022-09-16T07:23:53;139.50;;;13.17;;
4603;SDS011;2314;48.272;11.562;2022-09-16T07:26:22;128.40;;;10.93;;
4603;SDS011;2314;48.272;11.562;2022-09-16T07:28:53;129.87;;;11.47;;
4603;SDS011;2314;48.272;11.562;2022-09-16T07:31:22;130.07;;;11.97;;
4603;SDS011;2314;48.272;11.562;2022-09-16T07:33:57;131.47;;;11.70;;
4603;SDS011;2314;48.272;11.562;2022-09-16T07:36:27;136.23;;;12.10;;
4603;SDS011;2314;48.272;11.562;2022-09-16T07:38:57;126.90;;;10.00;;
4603;SDS011;2314;48.272;11.562;2022-09-16T07:41:25;129.40;;;11.30;;
4603;SDS011;2314;48.272;11.562;2022-09-16T07:43:56;127.37;;;11.37;;
4603;SDS011;2314;48.272;11.562;2022-09-16T07:46:25;129.17;;;11.20;;
4603;SDS011;2314;48.272;11.562;2022-09-16T07:48:55;128.07;;;10.37;;
4603;SDS011;2314;48.272;11.562;2022-09-16T07:51:24;124.50;;;9.57;;
4603;SDS011;2314;48.272;11.562;2022-09-16T07:53:54;124.80;;;9.60;;
4603;SDS011;2314;48.272;11.562;2022-09-16T07:56:23;125.13;;;10.23;;
4603;SDS011;2314;48.272;11.562;2022-09-16T07:59:00;132.47;;;10.37;;
4603;SDS011;2314;48.272;11.562;2022-09-16T08:01:40;125.27;;;10.50;;
4603;SDS011;2314;48.272;11.562;2022-09-16T08:04:07;125.07;;;9.93;;
4603;SDS011;2314;48.272;11.562;2022-09-16T08:06:38;126.37;;;10.43;;
4603;SDS011;2314;48.272;11.562;2022-09-16T08:09:05;130.67;;;11.20;;
4603;SDS011;2314;48.272;11.562;2022-09-16T08:11:35;130.10;;;9.87;;
4603;SDS011;2314;48.272;11.562;2022-09-16T08:14:04;126.27;;;10.97;;
4603;SDS011;2314;48.272;11.562;2022-09-16T08:16:35;126.37;;;9.70;;
4603;SDS011;2314;48.272;11.562;2022-09-16T08:19:03;125.30;;;9.93;;
4603;SDS011;2314;48.272;11.562;2022-09-16T08:21:30;128.47;;;9.87;;
4603;SDS011;2314;48.272;11.562;2022-09-16T08:23:57;126.90;;;11.13;;
4603;SDS011;2314;48.272;11.562;2022-09-16T08:26:25;126.73;;;10.50;;
4603;SDS011;2314;48.272;11.562;2022-09-16T08:28:53;143.13;;;10.27;;
4603;SDS011;2314;48.272;11.562;2022-09-16T08:31:28;125.70;;;10.90;;
4603;SDS011;2314;48.272;11.562;2022-09-16T08:33:56;131.70;;;11.53;;
4603;SDS011;2314;48.272;11.562;2022-09-16T08:36:23;130.67;;;11.00;;
4603;SDS011;2314;48.272;11.562;2022-09-16T08:38:53;135.17;;;10.80;;
4603;SDS011;2314;48.272;11.562;2022-09-16T08:44:22;127.17;;;10.93;;
4603;SDS011;2314;48.272;11.562;2022-09-16T08:47:01;125.37;;;10.27;;
4603;SDS011;2314;48.272;11.562;2022-09-16T08:49:36;128.07;;;10.63;;
4603;SDS011;2314;48.272;11.562;2022-09-16T08:52:08;125.67;;;10.30;;
4603;SDS011;2314;48.272;11.562;2022-09-16T08:54:39;130.40;;;11.17;;
4603;SDS011;2314;48.272;11.562;2022-09-16T08:57:10;127.60;;;10.70;;
4603;SDS011;2314;48.272;11.562;2022-09-16T08:59:43;128.07;;;10.53;;
4603;SDS011;2314;48.272;11.562;2022-09-16T09:02:25;130.50;;;11.57;;
4603;SDS011;2314;48.272;11.562;2022-09-16T09:05:12;125.30;;;10.70;;
4603;SDS011;2314;48.272;11.562;2022-09-16T09:10:39;132.47;;;11.60;;
4603;SDS011;2314;48.272;11.562;2022-09-16T09:13:20;131.20;;;10.50;;
4603;SDS011;2314;48.272;11.562;2022-09-16T09:16:13;125.77;;;10.30;;
4603;SDS011;2314;48.272;11.562;2022-09-16T09:18:56;131.20;;;11.47;;
4603;SDS011;2314;48.272;11.562;2022-09-16T09:21:47;129.00;;;11.60;;
4603;SDS011;2314;48.272;11.562;2022-09-16T09:24:30;126.77;;;12.13;;
4603;SDS011;2314;48.272;11.562;2022-09-16T09:27:20;127.67;;;11.53;;
4603;SDS011;2314;48.272;11.562;2022-09-16T09:29:56;133.77;;;13.10;;
4603;SDS011;2314;48.272;11.562;2022-09-16T09:32:36;130.50;;;12.43;;
4603;SDS011;2314;48.272;11.562;2022-09-16T09:35:23;130.17;;;12.70;;
4603;SDS011;2314;48.272;11.562;2022-09-16T09:41:09;143.53;;;12.73;;
4603;SDS011;2314;48.272;11.562;2022-09-16T09:43:42;134.03;;;13.93;;
4603;SDS011;2314;48.272;11.562;2022-09-16T09:46:22;132.87;;;13.50;;
4603;SDS011;2314;48.272;11.562;2022-09-16T09:48:59;131.03;;;12.80;;
4603;SDS011;2314;48.272;11.562;2022-09-16T09:51:37;135.43;;;13.60;;
4603;SDS011;2314;48.272;11.562;2022-09-16T09:54:21;132.80;;;13.73;;
4603;SDS011;2314;48.272;11.562;2022-09-16T09:56:55;139.93;;;13.33;;
4603;SDS011;2314;48.272;11.562;2022-09-16T09:59:30;133.60;;;15.00;;
4603;SDS011;2314;48.272;11.562;2022-09-16T10:02:06;135.83;;;12.63;;
4603;SDS011;2314;48.272;11.562;2022-09-16T10:04:42;129.60;;;10.87;;
4603;SDS011;2314;48.272;11.562;2022-09-16T10:07:11;130.33;;;11.87;;
4603;SDS011;2314;48.272;11.562;2022-09-16T10:09:46;132.67;;;11.33;;
4603;SDS011;2314;48.272;11.562;2022-09-16T10:12:27;129.17;;;10.37;;
4603;SDS011;2314;48.272;11.562;2022-09-16T10:14:56;132.07;;;12.20;;
4603;SDS011;2314;48.272;11.562;2022-09-16T10:17:25;126.70;;;9.60;;
4603;SDS011;2314;48.272;11.562;2022-09-16T10:19:56;131.23;;;8.57;;
4603;SDS011;2314;48.272;11.562;2022-09-16T10:22:27;123.77;;;8.07;;
4603;SDS011;2314;48.272;11.562;2022-09-16T10:24:56;126.33;;;8.27;;
4603;SDS011;2314;48.272;11.562;2022-09-16T10:27:26;129.10;;;8.20;;
4603;SDS011;2314;48.272;11.562;2022-09-16T10:30:02;128.80;;;8.00;;
4603;SDS011;2314;48.272;11.562;2022-09-16T10:32:43;129.40;;;8.87;;
4603;SDS011;2314;48.272;11.562;2022-09-16T10:35:16;124.67;;;7.93;;
4603;SDS011;2314;48.272;11.562;2022-09-16T10:37:53;124.27;;;8.00;;
4603;SDS011;2314;48.272;11.562;2022-09-16T10:40:23;129.20;;;9.23;;
4603;SDS011;2314;48.272;11.562;2022-09-16T10:42:55;128.00;;;9.13;;
4603;SDS011;2314;48.272;11.562;2022-09-16T10:45:29;128.03;;;9.37;;
4603;SDS011;2314;48.272;11.562;2022-09-16T10:48:00;126.50;;;9.83;;
4603;SDS011;2314;48.272;11.562;2022-09-16T10:50:55;131.57;;;8.90;;
4603;SDS011;2314;48.272;11.562;2022-09-16T10:53:28;123.87;;;7.93;;
4603;SDS011;2314;48.272;11.562;2022-09-16T10:55:58;128.27;;;8.30;;
4603;SDS011;2314;48.272;11.562;2022-09-16T10:58:28;124.40;;;8.20;;
4603;SDS011;2314;48.272;11.562;2022-09-16T11:00:59;121.33;;;6.83;;
4603;SDS011;2314;48.272;11.562;2022-09-16T11:03:49;132.80;;;7.43;;
4603;SDS011;2314;48.272;11.562;2022-09-16T11:07:02;127.83;;;7.60;;
4603;SDS011;2314;48.272;11.562;2022-09-16T11:09:47;133.33;;;8.80;;
4603;SDS011;2314;48.272;11.562;2022-09-16T11:12:37;137.10;;;9.57;;
4603;SDS011;2314;48.272;11.562;2022-09-16T11:15:40;133.63;;;8.73;;
4603;SDS011;2314;48.272;11.562;2022-09-16T11:18:26;131.60;;;8.70;;
4603;SDS011;2314;48.272;11.562;2022-09-16T11:21:23;129.00;;;8.97;;
4603;SDS011;2314;48.272;11.562;2022-09-16T11:24:27;129.73;;;8.97;;
4603;SDS011;2314;48.272;11.562;2022-09-16T11:27:47;125.57;;;8.73;;
4603;SDS011;2314;48.272;11.562;2022-09-16T11:30:24;126.63;;;8.10;;
4603;SDS011;2314;48.272;11.562;2022-09-16T11:32:56;129.47;;;8.73;;
4603;SDS011;2314;48.272;11.562;2022-09-16T11:35:41;131.10;;;9.00;;
4603;SDS011;2314;48.272;11.562;2022-09-16T11:38:38;131.10;;;8.20;;
4603;SDS011;2314;48.272;11.562;2022-09-16T11:41:13;124.83;;;7.80;;
4603;SDS011;2314;48.272;11.562;2022-09-16T11:47:10;126.17;;;7.07;;
4603;SDS011;2314;48.272;11.562;2022-09-16T11:50:02;128.40;;;7.73;;
4603;SDS011;2314;48.272;11.562;2022-09-16T11:52:48;126.97;;;8.53;;
4603;SDS011;2314;48.272;11.562;2022-09-16T11:55:45;125.93;;;8.60;;
4603;SDS011;2314;48.272;11.562;2022-09-16T11:58:20;126.30;;;7.80;;
4603;SDS011;2314;48.272;11.562;2022-09-16T12:00:57;126.23;;;8.10;;
4603;SDS011;2314;48.272;11.562;2022-09-16T12:03:30;129.30;;;8.70;;
4603;SDS011;2314;48.272;11.562;2022-09-16T12:06:07;125.37;;;8.17;;
4603;SDS011;2314;48.272;11.562;2022-09-16T12:08:42;126.30;;;8.40;;
4603;SDS011;2314;48.272;11.562;2022-09-16T12:11:19;124.93;;;8.00;;
4603;SDS011;2314;48.272;11.562;2022-09-16T12:13:57;127.00;;;8.93;;
4603;SDS011;2314;48.272;11.562;2022-09-16T12:16:37;130.47;;;9.40;;
4603;SDS011;2314;48.272;11.562;2022-09-16T12:19:10;136.17;;;10.50;;
4603;SDS011;2314;48.272;11.562;2022-09-16T12:21:45;135.57;;;10.10;;
4603;SDS011;2314;48.272;11.562;2022-09-16T12:24:18;127.07;;;9.57;;
4603;SDS011;2314;48.272;11.562;2022-09-16T12:26:53;129.87;;;10.27;;
4603;SDS011;2314;48.272;11.562;2022-09-16T12:29:29;128.33;;;8.60;;
4603;SDS011;2314;48.272;11.562;2022-09-16T12:32:07;126.97;;;8.80;;
4603;SDS011;2314;48.272;11.562;2022-09-16T12:34:39;127.70;;;9.17;;
4603;SDS011;2314;48.272;11.562;2022-09-16T12:37:16;132.60;;;9.00;;
4603;SDS011;2314;48.272;11.562;2022-09-16T12:39:58;124.37;;;7.43;;
4603;SDS011;2314;48.272;11.562;2022-09-16T12:42:36;124.10;;;7.40;;
4603;SDS011;2314;48.272;11.562;2022-09-16T12:45:53;123.57;;;6.43;;
4603;SDS011;2314;48.272;11.562;2022-09-16T13:01:19;122.20;;;5.30;;
4603;SDS011;2314;48.272;11.562;2022-09-16T13:03:51;126.07;;;5.83;;
4603;SDS011;2314;48.272;11.562;2022-09-16T13:06:24;125.90;;;5.30;;
4603;SDS011;2314;48.272;11.562;2022-09-16T13:08:54;121.87;;;4.83;;
4603;SDS011;2314;48.272;11.562;2022-09-16T13:11:26;124.23;;;5.10;;
4603;SDS011;2314;48.272;11.562;2022-09-16T13:13:55;122.60;;;4.40;;
4603;SDS011;2314;48.272;11.562;2022-09-16T13:16:28;125.10;;;4.87;;
4603;SDS011;2314;48.272;11.562;2022-09-16T13:22:01;122.37;;;5.30;;
4603;SDS011;2314;48.272;11.562;2022-09-16T13:24:42;125.30;;;5.10;;
4603;SDS011;2314;48.272;11.562;2022-09-16T13:27:22;122.07;;;5.13;;
4603;SDS011;2314;48.272;11.562;2022-09-16T13:30:11;123.03;;;5.83;;
4603;SDS011;2314;48.272;11.562;2022-09-16T13:32:59;121.80;;;5.47;;
4603;SDS011;2314;48.272;11.562;2022-09-16T13:35:36;121.23;;;5.50;;
4603;SDS011;2314;48.272;11.562;2022-09-16T13:38:34;122.90;;;5.90;;
4603;SDS011;2314;48.272;11.562;2022-09-16T13:41:07;121.30;;;5.23;;
4603;SDS011;2314;48.272;11.562;2022-09-16T13:43:47;126.17;;;6.30;;
4603;SDS011;2314;48.272;11.562;2022-09-16T13:46:26;119.90;;;5.03;;
4603;SDS011;2314;48.272;11.562;2022-09-16T13:49:02;132.00;;;5.80;;
4603;SDS011;2314;48.272;11.562;2022-09-16T13:51:48;122.40;;;5.63;;
4603;SDS011;2314;48.272;11.562;2022-09-16T13:57:11;126.13;;;6.07;;
4603;SDS011;2314;48.272;11.562;2022-09-16T14:00:03;122.20;;;5.37;;
4603;SDS011;2314;48.272;11.562;2022-09-16T14:03:01;125.40;;;4.90;;
4603;SDS011;2314;48.272;11.562;2022-09-16T14:06:13;121.27;;;5.20;;
4603;SDS011;2314;48.272;11.562;2022-09-16T14:09:07;122.60;;;5.57;;
4603;SDS011;2314;48.272;11.562;2022-09-16T14:11:54;123.83;;;5.97;;
4603;SDS011;2314;48.272;11.562;2022-09-16T14:14:29;127.23;;;6.37;;
4603;SDS011;2314;48.272;11.562;2022-09-16T14:17:12;124.10;;;6.77;;
4603;SDS011;2314;48.272;11.562;2022-09-16T14:19:45;123.50;;;6.20;;
4603;SDS011;2314;48.272;11.562;2022-09-16T14:22:19;127.77;;;7.00;;
4603;SDS011;2314;48.272;11.562;2022-09-16T14:24:49;128.67;;;7.60;;
4603;SDS011;2314;48.272;11.562;2022-09-16T14:27:21;122.37;;;6.23;;
4603;SDS011;2314;48.272;11.562;2022-09-16T14:30:00;128.63;;;6.70;;
4603;SDS011;2314;48.272;11.562;2022-09-16T14:32:30;124.00;;;6.93;;
4603;SDS011;2314;48.272;11.562;2022-09-16T14:35:01;130.53;;;7.27;;
4603;SDS011;2314;48.272;11.562;2022-09-16T14:37:36;125.97;;;6.60;;
4603;SDS011;2314;48.272;11.562;2022-09-16T14:40:05;123.30;;;6.57;;
4603;SDS011;2314;48.272;11.562;2022-09-16T14:42:40;126.27;;;6.30;;
4603;SDS011;2314;48.272;11.562;2022-09-16T14:45:15;127.60;;;5.90;;
4603;SDS011;2314;48.272;11.562;2022-09-16T14:47:43;122.73;;;6.37;;
4603;SDS011;2314;48.272;11.562;2022-09-16T14:50:14;123.27;;;6.20;;
4603;SDS011;2314;48.272;11.562;2022-09-16T14:52:51;123.07;;;6.57;;
4603;SDS011;2314;48.272;11.562;2022-09-16T14:55:21;125.30;;;6.67;;
4603;SDS011;2314;48.272;11.562;2022-09-16T14:57:51;124.30;;;6.57;;
4603;SDS011;2314;48.272;11.562;2022-09-16T15:00:19;121.97;;;6.30;;
4603;SDS011;2314;48.272;11.562;2022-09-16T15:02:47;122.90;;;6.70;;
4603;SDS011;2314;48.272;11.562;2022-09-16T15:05:20;121.97;;;6.23;;
4603;SDS011;2314;48.272;11.562;2022-09-16T15:07:52;120.60;;;5.90;;
4603;SDS011;2314;48.272;11.562;2022-09-16T15:10:34;123.07;;;6.30;;
4603;SDS011;2314;48.272;11.562;2022-09-16T15:13:03;129.93;;;9.20;;
4603;SDS011;2314;48.272;11.562;2022-09-16T15:15:35;123.37;;;7.13;;
4603;SDS011;2314;48.272;11.562;2022-09-16T15:18:04;124.93;;;7.47;;
4603;SDS011;2314;48.272;11.562;2022-09-16T15:20:35;122.70;;;6.50;;
4603;SDS011;2314;48.272;11.562;2022-09-16T15:23:05;126.97;;;7.20;;
4603;SDS011;2314;48.272;11.562;2022-09-16T15:25:49;124.67;;;6.43;;
4603;SDS011;2314;48.272;11.562;2022-09-16T15:28:19;122.50;;;6.33;;
4603;SDS011;2314;48.272;11.562;2022-09-16T15:30:50;124.57;;;6.50;;
4603;SDS011;2314;48.272;11.562;2022-09-16T15:33:23;122.50;;;6.83;;
4603;SDS011;2314;48.272;11.562;2022-09-16T15:35:53;124.80;;;6.60;;
4603;SDS011;2314;48.272;11.562;2022-09-16T15:38:21;121.50;;;5.97;;
4603;SDS011;2314;48.272;11.562;2022-09-16T15:40:58;123.87;;;6.20;;